createdAt,value
2022-10-10T00:01:23.494Z,1.08
2022-10-10T00:03:50.918Z,0.63
2022-10-10T00:06:18.867Z,0.85
2022-10-10T00:08:46.442Z,0.70
2022-10-10T00:11:15.102Z,0.75
2022-10-10T00:13:42.878Z,0.95
2022-10-10T00:16:10.888Z,0.70
2022-10-10T00:18:38.685Z,0.70
2022-10-10T00:21:06.366Z,0.63
2022-10-10T00:23:33.946Z,0.60
2022-10-10T00:26:05.578Z,0.80
2022-10-10T00:28:34.518Z,0.73
2022-10-10T00:31:01.942Z,0.90
2022-10-10T00:33:29.238Z,0.93
2022-10-10T00:35:56.606Z,0.60
2022-10-10T00:38:24.049Z,0.57
2022-10-10T00:40:56.375Z,0.70
2022-10-10T00:43:25.655Z,0.60
2022-10-10T00:45:54.138Z,0.50
2022-10-10T00:48:50.934Z,1.08
2022-10-10T00:51:19.803Z,0.65
2022-10-10T00:53:55.328Z,0.82
2022-10-10T00:56:28.305Z,0.70
2022-10-10T00:58:58.064Z,0.45
2022-10-10T01:01:25.759Z,0.63
2022-10-10T01:03:56.940Z,0.63
2022-10-10T01:06:24.272Z,0.50
2022-10-10T01:08:51.870Z,0.55
2022-10-10T01:11:46.843Z,0.85
2022-10-10T01:14:41.916Z,0.52
2022-10-10T01:17:32.954Z,0.60
2022-10-10T01:20:21.587Z,0.98
2022-10-10T01:23:21.086Z,0.98
2022-10-10T01:26:06.199Z,0.47
2022-10-10T01:28:53.709Z,0.47
2022-10-10T01:31:24.407Z,0.57
2022-10-10T01:34:27.900Z,1.13
2022-10-10T01:37:09.924Z,0.60
2022-10-10T01:39:43.043Z,0.68
2022-10-10T01:42:28.492Z,0.47
2022-10-10T01:44:56.395Z,0.98
2022-10-10T01:47:23.849Z,0.60
2022-10-10T01:49:54.500Z,1.05
2022-10-10T01:53:09.847Z,0.40
2022-10-10T01:55:57.947Z,0.70
2022-10-10T01:58:50.844Z,0.40
2022-10-10T02:01:29.939Z,0.77
2022-10-10T02:04:13.602Z,0.43
2022-10-10T02:06:53.114Z,0.60
2022-10-10T02:09:28.342Z,0.47
2022-10-10T02:11:58.363Z,0.70
2022-10-10T02:14:30.982Z,0.90
2022-10-10T02:17:00.486Z,1.10
2022-10-10T02:19:30.476Z,0.60
2022-10-10T02:21:58.353Z,0.88
2022-10-10T02:24:25.751Z,0.70
2022-10-10T02:26:59.248Z,0.73
2022-10-10T02:29:31.222Z,0.43
2022-10-10T02:32:39.987Z,0.95
2022-10-10T02:35:14.376Z,0.90
2022-10-10T02:37:43.421Z,0.63
2022-10-10T02:40:14.386Z,0.47
2022-10-10T02:42:42.568Z,0.73
2022-10-10T02:45:10.275Z,0.43
2022-10-10T02:47:37.693Z,0.98
2022-10-10T02:50:05.831Z,1.10
2022-10-10T02:52:33.393Z,0.40
2022-10-10T02:55:00.891Z,0.70
2022-10-10T02:57:28.200Z,0.50
2022-10-10T02:59:55.518Z,0.60
2022-10-10T03:02:23.293Z,0.50
2022-10-10T03:04:50.636Z,0.47
2022-10-10T03:07:17.987Z,0.80
2022-10-10T03:09:45.364Z,0.40
2022-10-10T03:12:12.986Z,0.45
2022-10-10T03:14:40.355Z,0.20
2022-10-10T03:17:07.703Z,0.57
2022-10-10T03:19:35.074Z,0.60
2022-10-10T03:22:02.413Z,0.50
2022-10-10T03:24:29.817Z,0.30
2022-10-10T03:26:57.124Z,0.40
2022-10-10T03:29:24.526Z,0.98
2022-10-10T03:31:51.836Z,0.73
2022-10-10T03:34:19.218Z,1.05
2022-10-10T03:36:46.544Z,0.80
2022-10-10T03:39:14.008Z,0.40
2022-10-10T03:41:41.377Z,0.60
2022-10-10T03:44:08.692Z,0.40
2022-10-10T03:46:36.079Z,0.70
2022-10-10T03:49:03.757Z,0.52
2022-10-10T03:51:31.128Z,0.52
2022-10-10T03:53:58.436Z,0.70
2022-10-10T03:56:25.820Z,0.47
2022-10-10T03:58:53.211Z,0.50
2022-10-10T04:01:20.582Z,0.50
2022-10-10T04:03:52.016Z,0.85
2022-10-10T04:06:19.889Z,0.88
2022-10-10T04:08:47.309Z,0.50
2022-10-10T04:11:14.785Z,0.88
2022-10-10T04:13:42.534Z,0.45
2022-10-10T04:16:09.889Z,0.77
2022-10-10T04:18:37.174Z,0.50
2022-10-10T04:21:06.005Z,0.70
2022-10-10T04:23:33.367Z,1.13
2022-10-10T04:26:00.744Z,0.70
2022-10-10T04:28:28.191Z,0.50
2022-10-10T04:30:56.742Z,1.00
2022-10-10T04:33:24.130Z,0.50
2022-10-10T04:35:51.469Z,0.85
2022-10-10T04:38:21.284Z,0.40
2022-10-10T04:40:50.666Z,0.77
2022-10-10T04:43:18.688Z,0.63
2022-10-10T04:45:46.507Z,0.95
2022-10-10T04:48:13.973Z,0.85
2022-10-10T04:50:41.429Z,0.80
2022-10-10T04:53:08.786Z,0.65
2022-10-10T04:55:36.119Z,0.75
2022-10-10T04:58:03.431Z,0.68
2022-10-10T05:00:30.768Z,1.35
2022-10-10T05:02:58.348Z,0.57
2022-10-10T05:05:25.788Z,0.55
2022-10-10T05:07:55.437Z,0.60
2022-10-10T05:10:24.439Z,0.80
2022-10-10T05:12:52.629Z,0.98
2022-10-10T05:15:21.504Z,0.85
2022-10-10T05:17:48.846Z,0.88
2022-10-10T05:20:16.349Z,0.70
2022-10-10T05:22:44.474Z,0.88
2022-10-10T05:25:12.197Z,0.63
2022-10-10T05:27:39.626Z,0.98
2022-10-10T05:30:07.511Z,0.63
2022-10-10T05:32:35.334Z,1.10
2022-10-10T05:35:04.300Z,0.70
2022-10-10T05:37:32.784Z,0.77
2022-10-10T05:40:00.163Z,0.95
2022-10-10T05:42:28.966Z,0.60
2022-10-10T05:44:56.924Z,0.77
2022-10-10T05:47:27.782Z,1.00
2022-10-10T05:49:55.602Z,0.52
2022-10-10T05:52:22.962Z,0.60
2022-10-10T05:54:50.354Z,0.55
2022-10-10T05:57:17.650Z,0.75
2022-10-10T05:59:45.053Z,0.80
2022-10-10T06:02:13.768Z,1.05
2022-10-10T06:04:41.463Z,1.23
2022-10-10T06:07:09.610Z,0.88
2022-10-10T06:09:37.189Z,0.82
2022-10-10T06:12:04.517Z,0.85
2022-10-10T06:14:32.073Z,0.65
2022-10-10T06:16:59.434Z,0.85
2022-10-10T06:19:26.786Z,1.35
2022-10-10T06:21:54.064Z,0.73
2022-10-10T06:24:21.498Z,1.20
2022-10-10T06:26:48.812Z,0.98
2022-10-10T06:29:16.182Z,1.33
2022-10-10T06:31:43.501Z,0.85
2022-10-10T06:34:10.879Z,0.60
2022-10-10T06:36:38.331Z,1.20
2022-10-10T06:39:05.748Z,0.60
2022-10-10T06:41:33.063Z,0.77
2022-10-10T06:44:00.484Z,0.60
2022-10-10T06:46:27.801Z,0.63
2022-10-10T06:48:55.185Z,0.73
2022-10-10T06:51:22.521Z,0.90
2022-10-10T06:53:50.248Z,0.90
2022-10-10T06:56:26.330Z,0.70
2022-10-10T06:58:55.044Z,0.70
2022-10-10T07:01:24.522Z,0.65
2022-10-10T07:03:52.125Z,1.33
2022-10-10T07:06:19.568Z,1.35
2022-10-10T07:08:46.943Z,1.05
2022-10-10T07:11:14.277Z,0.85
2022-10-10T07:13:41.637Z,0.98
2022-10-10T07:16:10.682Z,2.08
2022-10-10T07:18:38.467Z,2.17
2022-10-10T07:21:06.324Z,1.42
2022-10-10T07:23:33.959Z,0.98
2022-10-10T07:26:05.392Z,2.28
2022-10-10T07:28:34.035Z,0.90
2022-10-10T07:31:11.541Z,0.95
2022-10-10T07:36:23.837Z,2.65
2022-10-10T07:38:54.903Z,2.00
2022-10-10T07:41:22.539Z,0.80
2022-10-10T07:43:54.116Z,1.55
2022-10-10T07:46:22.202Z,0.70
2022-10-10T07:48:49.741Z,7.30
2022-10-10T07:51:17.180Z,1.65
2022-10-10T07:53:44.712Z,19.88
2022-10-10T07:56:12.320Z,15.25
2022-10-10T07:58:40.041Z,2.20
2022-10-10T08:01:10.575Z,8.05
2022-10-10T08:03:38.602Z,3.05
2022-10-10T08:06:09.069Z,1.10
2022-10-10T08:08:42.765Z,1.45
2022-10-10T08:11:16.084Z,2.55
2022-10-10T08:13:43.441Z,1.33
2022-10-10T08:16:10.785Z,0.90
2022-10-10T08:18:38.172Z,1.55
2022-10-10T08:21:07.822Z,0.70
2022-10-10T08:23:35.856Z,1.13
2022-10-10T08:26:07.170Z,0.80
2022-10-10T08:28:35.626Z,1.45
2022-10-10T08:31:22.621Z,0.80
2022-10-10T08:33:51.288Z,0.68
2022-10-10T08:36:22.745Z,1.00
2022-10-10T08:38:52.648Z,0.88
2022-10-10T08:41:34.874Z,0.82
2022-10-10T08:46:44.779Z,0.95
2022-10-10T08:49:31.161Z,1.45
2022-10-10T08:52:21.819Z,0.73
2022-10-10T08:54:50.046Z,1.20
2022-10-10T08:57:27.843Z,0.90
2022-10-10T08:59:59.811Z,0.77
2022-10-10T09:05:46.737Z,1.08
2022-10-10T09:08:51.732Z,1.52
2022-10-10T09:11:42.559Z,0.80
2022-10-10T09:14:20.234Z,0.80
2022-10-10T09:17:09.738Z,0.90
2022-10-10T09:19:55.789Z,0.82
2022-10-10T09:22:28.686Z,0.90
2022-10-10T09:25:07.158Z,1.00
2022-10-10T09:27:40.533Z,1.20
2022-10-10T09:30:19.908Z,0.90
2022-10-10T09:32:58.774Z,1.02
2022-10-10T09:35:34.594Z,0.88
2022-10-10T09:38:47.029Z,0.82
2022-10-10T09:41:33.395Z,1.02
2022-10-10T09:44:05.568Z,0.98
2022-10-10T09:46:33.029Z,0.82
2022-10-10T09:49:00.421Z,0.85
2022-10-10T09:51:30.737Z,0.68
2022-10-10T09:53:58.789Z,0.73
2022-10-10T09:56:29.664Z,0.65
2022-10-10T09:58:57.451Z,0.90
2022-10-10T10:01:31.589Z,1.05
2022-10-10T10:04:28.627Z,0.98
2022-10-10T10:07:21.919Z,1.00
2022-10-10T10:09:55.100Z,0.80
2022-10-10T10:12:32.050Z,0.70
2022-10-10T10:15:05.124Z,0.60
2022-10-10T10:17:32.982Z,0.80
2022-10-10T10:20:00.417Z,1.08
2022-10-10T10:22:48.057Z,0.60
2022-10-10T10:25:33.350Z,0.75
2022-10-10T10:28:20.591Z,0.70
2022-10-10T10:30:48.667Z,0.70
2022-10-10T10:33:51.440Z,0.90
2022-10-10T10:36:39.625Z,0.85
2022-10-10T10:39:25.748Z,0.63
2022-10-10T10:42:05.615Z,0.93
2022-10-10T10:44:43.246Z,0.80
2022-10-10T10:47:25.024Z,0.60
2022-10-10T10:50:26.651Z,0.57
2022-10-10T10:53:08.159Z,0.50
2022-10-10T10:55:44.871Z,0.65
2022-10-10T11:01:57.637Z,0.88
2022-10-10T11:05:29.677Z,0.80
2022-10-10T11:08:28.174Z,0.65
2022-10-10T11:11:36.945Z,0.70
2022-10-10T11:14:29.803Z,0.70
2022-10-10T11:17:07.553Z,1.00
2022-10-10T11:19:45.267Z,0.82
2022-10-10T11:22:17.808Z,0.70
2022-10-10T11:25:07.195Z,0.60
2022-10-10T11:27:50.621Z,0.70
2022-10-10T11:30:23.528Z,0.82
2022-10-10T11:33:19.771Z,0.80
2022-10-10T11:35:53.608Z,0.68
2022-10-10T11:38:27.493Z,1.08
2022-10-10T11:41:18.312Z,0.90
2022-10-10T11:44:04.175Z,1.20
2022-10-10T11:46:59.490Z,0.82
2022-10-10T11:49:48.928Z,0.85
2022-10-10T11:52:34.916Z,0.60
2022-10-10T11:55:26.859Z,0.63
2022-10-10T11:58:35.508Z,1.10
2022-10-10T12:01:29.476Z,0.90
2022-10-10T12:03:59.840Z,1.08
2022-10-10T12:06:38.285Z,0.90
2022-10-10T12:09:28.855Z,1.10
2022-10-10T12:12:14.718Z,1.10
2022-10-10T12:14:48.145Z,1.20
2022-10-10T12:17:21.550Z,0.82
2022-10-10T12:19:51.620Z,1.00
2022-10-10T12:22:25.946Z,0.60
2022-10-10T12:25:24.661Z,0.68
2022-10-10T12:28:29.066Z,0.80
2022-10-10T12:31:26.804Z,1.00
2022-10-10T12:34:13.748Z,0.88
2022-10-10T12:36:54.604Z,0.60
2022-10-10T12:39:59.446Z,1.05
2022-10-10T12:42:32.697Z,0.80
2022-10-10T12:45:00.220Z,0.85
2022-10-10T12:48:03.264Z,0.65
2022-10-10T12:50:26.307Z,0.60
2022-10-10T12:52:59.752Z,0.70
2022-10-10T12:55:40.277Z,0.65
2022-10-10T12:58:31.896Z,0.70
2022-10-10T13:01:02.467Z,1.13
2022-10-10T13:03:42.412Z,0.77
2022-10-10T13:06:40.702Z,0.88
2022-10-10T13:09:11.502Z,0.77
2022-10-10T13:11:59.401Z,0.95
2022-10-10T13:14:38.488Z,0.60
2022-10-10T13:17:31.714Z,0.80
2022-10-10T13:20:03.170Z,1.00
2022-10-10T13:22:33.146Z,1.20
2022-10-10T13:25:01.196Z,1.00
2022-10-10T13:27:35.326Z,1.65
2022-10-10T13:30:05.356Z,0.60
2022-10-10T13:32:35.005Z,1.48
2022-10-10T13:35:06.640Z,1.10
2022-10-10T13:37:35.215Z,1.02
2022-10-10T13:40:02.860Z,1.27
2022-10-10T13:42:48.632Z,0.93
2022-10-10T13:45:36.456Z,0.95
2022-10-10T13:48:30.074Z,1.00
2022-10-10T13:51:09.955Z,1.02
2022-10-10T13:53:54.417Z,0.93
2022-10-10T13:56:28.635Z,0.93
2022-10-10T13:59:11.926Z,0.73
2022-10-10T14:01:44.588Z,0.75
2022-10-10T14:04:37.771Z,0.80
2022-10-10T14:07:10.870Z,0.80
2022-10-10T14:09:46.485Z,1.02
2022-10-10T14:12:30.712Z,0.98
2022-10-10T14:14:59.792Z,1.33
2022-10-10T14:17:28.486Z,1.52
2022-10-10T14:19:56.503Z,0.60
2022-10-10T14:22:23.856Z,0.98
2022-10-10T14:24:51.169Z,0.45
2022-10-10T14:27:26.555Z,0.60
2022-10-10T14:29:56.925Z,0.70
2022-10-10T14:32:25.182Z,0.77
2022-10-10T14:34:52.600Z,0.70
2022-10-10T14:37:25.524Z,0.88
2022-10-10T14:39:53.520Z,0.73
2022-10-10T14:42:22.326Z,0.88
2022-10-10T14:44:49.692Z,0.63
2022-10-10T14:47:21.900Z,1.00
2022-10-10T14:49:49.446Z,0.75
2022-10-10T14:52:16.755Z,0.50
2022-10-10T14:54:44.138Z,1.05
2022-10-10T14:57:14.949Z,0.80
2022-10-10T14:59:48.223Z,0.80
2022-10-10T15:02:17.252Z,1.40
2022-10-10T15:04:44.531Z,0.77
2022-10-10T15:07:13.931Z,0.65
2022-10-10T15:10:03.957Z,0.80
2022-10-10T15:12:34.701Z,0.70
2022-10-10T15:15:02.288Z,0.90
2022-10-10T15:17:31.096Z,0.90
2022-10-10T15:19:58.458Z,0.73
2022-10-10T15:22:25.836Z,0.75
2022-10-10T15:24:53.309Z,1.30
2022-10-10T15:27:20.682Z,0.90
2022-10-10T15:29:47.993Z,0.90
2022-10-10T15:32:15.382Z,1.35
2022-10-10T15:34:42.677Z,0.60
2022-10-10T15:37:10.574Z,0.80
2022-10-10T15:39:38.124Z,0.88
2022-10-10T15:42:13.266Z,0.88
2022-10-10T15:44:46.722Z,0.60
2022-10-10T15:47:15.961Z,1.52
2022-10-10T15:49:43.777Z,1.00
2022-10-10T15:52:11.186Z,1.25
2022-10-10T15:54:38.893Z,1.17
2022-10-10T15:57:06.295Z,0.70
2022-10-10T15:59:35.156Z,0.90
2022-10-10T16:02:04.363Z,0.93
2022-10-10T16:04:31.745Z,1.27
2022-10-10T16:07:23.305Z,1.33
2022-10-10T16:09:46.380Z,0.77
2022-10-10T16:12:13.760Z,1.00
2022-10-10T16:14:41.124Z,0.82
2022-10-10T16:17:08.470Z,1.40
2022-10-10T16:19:35.816Z,1.17
2022-10-10T16:22:03.130Z,1.05
2022-10-10T16:24:30.688Z,0.93
2022-10-10T16:26:59.456Z,0.65
2022-10-10T16:29:26.810Z,0.90
2022-10-10T16:31:54.201Z,1.50
2022-10-10T16:34:21.481Z,0.85
2022-10-10T16:36:48.868Z,1.73
2022-10-10T16:39:16.186Z,1.60
2022-10-10T16:41:48.131Z,1.40
2022-10-10T16:44:17.407Z,1.50
2022-10-10T16:46:44.971Z,0.85
2022-10-10T16:49:13.326Z,0.98
2022-10-10T16:51:40.701Z,1.30
2022-10-10T16:54:08.055Z,1.77
2022-10-10T16:56:35.847Z,2.80
2022-10-10T16:59:04.146Z,1.70
2022-10-10T17:01:31.678Z,1.92
2022-10-10T17:04:01.018Z,1.60
2022-10-10T17:06:34.854Z,1.33
2022-10-10T17:09:05.637Z,1.98
2022-10-10T17:11:33.801Z,2.00
2022-10-10T17:14:01.165Z,2.00
2022-10-10T17:17:10.582Z,2.30
2022-10-10T17:19:17.613Z,2.35
2022-10-10T17:21:45.007Z,1.80
2022-10-10T17:24:13.271Z,2.42
2022-10-10T17:26:40.714Z,2.22
2022-10-10T17:29:08.204Z,2.47
2022-10-10T17:31:35.633Z,2.72
2022-10-10T17:34:03.051Z,2.17
2022-10-10T17:36:30.510Z,2.70
2022-10-10T17:39:00.286Z,2.35
2022-10-10T17:41:28.441Z,2.40
2022-10-10T17:43:56.115Z,2.78
2022-10-10T17:46:41.467Z,2.33
2022-10-10T17:49:10.812Z,3.20
2022-10-10T17:51:40.694Z,3.47
2022-10-10T17:54:10.028Z,2.17
2022-10-10T17:56:37.730Z,2.38
2022-10-10T17:59:06.786Z,2.63
2022-10-10T18:01:35.689Z,3.20
2022-10-10T18:04:03.837Z,2.70
2022-10-10T18:06:31.811Z,3.60
2022-10-10T18:08:59.983Z,2.25
2022-10-10T18:11:30.263Z,2.45
2022-10-10T18:14:00.687Z,3.28
2022-10-10T18:16:33.013Z,2.50
2022-10-10T18:19:01.071Z,3.10
2022-10-10T18:21:28.679Z,2.65
2022-10-10T18:23:56.610Z,2.35
2022-10-10T18:26:26.513Z,2.22
2022-10-10T18:28:55.813Z,2.92
2022-10-10T18:31:26.032Z,2.38
2022-10-10T18:33:53.723Z,3.08
2022-10-10T18:36:23.632Z,2.45
2022-10-10T18:38:51.302Z,2.58
2022-10-10T18:41:24.350Z,2.03
2022-10-10T18:43:52.199Z,2.13
2022-10-10T18:46:22.173Z,2.55
2022-10-10T18:48:53.888Z,3.58
2022-10-10T18:53:58.572Z,2.33
2022-10-10T18:56:25.936Z,2.28
2022-10-10T18:58:57.030Z,2.30
2022-10-10T19:01:26.526Z,3.60
2022-10-10T19:03:55.177Z,2.53
2022-10-10T19:06:24.494Z,2.83
2022-10-10T19:08:54.572Z,2.50
2022-10-10T19:11:25.127Z,2.70
2022-10-10T19:13:52.825Z,2.63
2022-10-10T19:16:20.622Z,2.55
2022-10-10T19:18:47.961Z,3.00
2022-10-10T19:21:16.173Z,3.90
2022-10-10T19:23:44.322Z,2.47
2022-10-10T19:26:14.372Z,2.83
2022-10-10T19:28:42.170Z,3.10
2022-10-10T19:31:15.919Z,2.45
2022-10-10T19:33:44.484Z,2.33
2022-10-10T19:36:12.654Z,2.45
2022-10-10T19:38:41.296Z,2.47
2022-10-10T19:41:12.940Z,2.78
2022-10-10T19:43:41.282Z,2.85
2022-10-10T19:46:11.323Z,2.50
2022-10-10T19:48:38.688Z,2.58
2022-10-10T19:51:10.384Z,2.47
2022-10-10T19:53:38.963Z,2.92
2022-10-10T19:56:13.452Z,2.55
2022-10-10T19:58:41.036Z,2.35
2022-10-10T20:01:14.032Z,3.65
2022-10-10T20:03:42.012Z,2.72
2022-10-10T20:06:09.875Z,1.65
2022-10-10T20:08:37.455Z,2.30
2022-10-10T20:11:05.024Z,2.35
2022-10-10T20:13:32.518Z,3.42
2022-10-10T20:16:03.778Z,2.67
2022-10-10T20:18:34.480Z,2.92
2022-10-10T20:21:22.060Z,2.85
2022-10-10T20:23:49.661Z,3.10
2022-10-10T20:26:20.078Z,3.50
2022-10-10T20:28:49.267Z,2.90
2022-10-10T20:31:20.283Z,3.25
2022-10-10T20:33:49.081Z,2.70
2022-10-10T20:36:17.662Z,3.08
2022-10-10T20:38:45.731Z,2.78
2022-10-10T20:41:13.094Z,3.30
2022-10-10T20:43:40.424Z,2.55
2022-10-10T20:46:10.077Z,2.95
2022-10-10T20:48:38.054Z,3.53
2022-10-10T20:51:15.466Z,3.28
2022-10-10T20:53:42.849Z,2.55
2022-10-10T20:56:12.397Z,2.65
2022-10-10T20:58:40.282Z,2.28
2022-10-10T21:01:17.221Z,3.10
2022-10-10T21:03:46.307Z,2.78
2022-10-10T21:06:16.796Z,2.58
2022-10-10T21:08:45.040Z,2.30
2022-10-10T21:11:14.807Z,2.63
2022-10-10T21:13:44.921Z,2.67
2022-10-10T21:16:15.323Z,2.70
2022-10-10T21:18:53.533Z,3.00
2022-10-10T21:21:25.546Z,2.70
2022-10-10T21:23:56.168Z,2.78
2022-10-10T21:26:25.672Z,3.35
2022-10-10T21:28:53.442Z,3.20
2022-10-10T21:31:23.559Z,2.33
2022-10-10T21:33:51.132Z,2.60
2022-10-10T21:36:20.007Z,2.83
2022-10-10T21:38:47.805Z,2.97
2022-10-10T21:41:19.282Z,2.67
2022-10-10T21:43:49.184Z,2.10
2022-10-10T21:46:18.806Z,2.83
2022-10-10T21:48:46.354Z,3.08
2022-10-10T21:51:15.710Z,2.30
2022-10-10T21:53:43.431Z,2.50
2022-10-10T21:56:13.525Z,2.67
2022-10-10T21:58:43.171Z,2.75
2022-10-10T22:01:17.213Z,1.95
2022-10-10T22:03:45.873Z,2.50
2022-10-10T22:06:16.515Z,2.65
2022-10-10T22:08:43.945Z,2.47
2022-10-10T22:11:14.476Z,2.78
2022-10-10T22:13:42.240Z,2.58
2022-10-10T22:16:10.345Z,2.85
2022-10-10T22:18:38.616Z,2.08
2022-10-10T22:21:09.075Z,2.78
2022-10-10T22:23:36.695Z,2.47
2022-10-10T22:26:11.452Z,2.78
2022-10-10T22:28:39.346Z,2.00
2022-10-10T22:31:14.034Z,1.95
2022-10-10T22:33:42.043Z,2.30
2022-10-10T22:36:10.035Z,2.35
2022-10-10T22:38:39.585Z,2.80
2022-10-10T22:41:07.720Z,2.20
2022-10-10T22:43:35.383Z,2.53
2022-10-10T22:46:03.456Z,1.98
2022-10-10T22:48:31.101Z,1.75
2022-10-10T22:51:11.667Z,1.70
2022-10-10T22:53:40.497Z,1.63
2022-10-10T22:56:09.591Z,1.38
2022-10-10T22:58:36.960Z,1.27
2022-10-10T23:01:07.960Z,1.33
2022-10-10T23:03:35.395Z,2.20
2022-10-10T23:06:03.476Z,2.20
2022-10-10T23:08:31.716Z,1.23
2022-10-10T23:10:59.297Z,1.73
2022-10-10T23:13:26.987Z,2.17
2022-10-10T23:15:54.636Z,1.73
2022-10-10T23:18:21.928Z,1.00
2022-10-10T23:20:50.438Z,1.35
2022-10-10T23:23:18.412Z,0.82
2022-10-10T23:25:47.523Z,2.22
2022-10-10T23:28:15.840Z,1.45
2022-10-10T23:30:44.933Z,1.42
2022-10-10T23:33:13.140Z,1.15
2022-10-10T23:35:40.582Z,1.40
2022-10-10T23:38:08.442Z,1.83
2022-10-10T23:40:35.832Z,1.73
2022-10-10T23:43:03.231Z,1.77
2022-10-10T23:45:31.245Z,1.25
2022-10-10T23:47:58.555Z,1.20
2022-10-10T23:50:25.914Z,1.52
2022-10-10T23:52:53.335Z,1.70
2022-10-10T23:55:20.707Z,1.13
2022-10-10T23:57:48.013Z,1.38
